Time;durP1;ratioP1;P1;durP2;ratioP2;P2;SDS_P1;SDS_P2;PMS_P1;PMS_P2;Temp;Humidity;BMP_temperature;BMP_pressure;BME280_temperature;BME280_humidity;BME280_pressure;Samples;Min_cycle;Max_cycle;Signal;HPM_P1;HPM_P2
2023/10/13 00:31:56;;;;;;;20.40;11.38;;;;;;;-143.90;100.00;65065.84;6245436;23;20077;-81
2023/10/13 00:38:28;;;;;;;19.67;11.25;;;;;;;-143.90;100.00;65065.84;6245604;22;20071;-83
2023/10/13 00:40:54;;;;;;;22.15;11.48;;;;;;;-143.90;100.00;65065.84;6243595;23;20392;-83
2023/10/13 00:46:44;;;;;;;18.30;11.27;;;;;;;-143.90;100.00;65065.84;6244160;22;20097;-81
2023/10/13 00:52:35;;;;;;;19.15;10.85;;;;;;;-143.90;100.00;65065.84;6244430;23;20023;-81
2023/10/13 00:55:01;;;;;;;19.98;11.40;;;;;;;-143.90;100.00;65065.84;6242369;23;20016;-82
2023/10/13 01:00:56;;;;;;;16.50;10.00;;;;;;;-143.90;100.00;65065.84;6244656;22;20034;-84
2023/10/13 01:06:25;;;;;;;18.25;11.30;;;;;;;-143.90;100.00;65065.84;6244263;23;19938;-80
2023/10/13 01:09:10;;;;;;;21.50;11.35;;;;;;;-143.90;100.00;65065.84;6243420;22;20044;-81
2023/10/13 01:11:36;;;;;;;17.20;10.73;;;;;;;-143.90;100.00;65065.84;6242665;23;20008;-78
2023/10/13 01:17:23;;;;;;;16.98;10.10;;;;;;;-143.90;100.00;65065.84;6244699;23;20130;-82
2023/10/13 01:19:49;;;;;;;16.67;10.45;;;;;;;-143.90;100.00;65065.84;6243198;23;20028;-80
2023/10/13 01:22:15;;;;;;;17.88;9.85;;;;;;;-143.90;100.00;65065.84;6242672;22;20016;-82
2023/10/13 01:28:02;;;;;;;13.65;9.30;;;;;;;-143.90;100.00;65065.84;6243467;23;20023;-81
2023/10/13 01:33:53;;;;;;;18.67;9.68;;;;;;;-143.90;100.00;65065.84;6244188;23;20493;-81
2023/10/13 01:36:19;;;;;;;18.50;9.85;;;;;;;-143.90;100.00;65065.84;6243973;22;20066;-82
2023/10/13 01:42:06;;;;;;;13.80;8.95;;;;;;;-143.90;100.00;65065.84;6244016;23;20023;-80
2023/10/13 01:47:53;;;;;;;18.30;9.52;;;;;;;-143.90;100.00;65065.84;6241413;23;20106;-81
2023/10/13 01:53:43;;;;;;;17.65;9.40;;;;;;;-143.90;100.00;65065.84;6244150;23;20345;-80
2023/10/13 01:59:30;;;;;;;15.00;9.40;;;;;;;-143.90;100.00;65065.84;6240912;23;20070;-80
2023/10/13 02:05:17;;;;;;;15.77;9.57;;;;;;;-143.90;100.00;65065.84;6243767;23;20284;-81
2023/10/13 02:11:07;;;;;;;19.27;11.48;;;;;;;-143.90;100.00;65065.84;6244816;23;20070;-80
2023/10/13 02:17:11;;;;;;;21.73;11.38;;;;;;;-143.90;100.00;65065.84;6241616;23;20341;-82
2023/10/13 02:19:39;;;;;;;19.95;11.40;;;;;;;-143.90;100.00;65065.84;6221178;23;20042;-81
2023/10/13 02:25:42;;;;;;;21.77;12.60;;;;;;;-143.90;100.00;65065.84;6243871;23;20077;-82
2023/10/13 02:31:29;;;;;;;22.38;12.70;;;;;;;-143.90;100.00;65065.84;6240279;23;20107;-82
2023/10/13 02:37:19;;;;;;;24.25;13.65;;;;;;;-143.90;100.00;65065.84;6240593;22;20061;-81
2023/10/13 02:43:06;;;;;;;27.50;15.45;;;;;;;-143.90;100.00;65065.84;6243330;23;20019;-82
2023/10/13 02:45:32;;;;;;;25.08;13.95;;;;;;;-143.90;100.00;65065.84;6243524;22;20012;-80
2023/10/13 02:48:16;;;;;;;28.05;14.02;;;;;;;-143.90;100.00;65065.84;6265726;22;20761;-81
2023/10/13 02:50:43;;;;;;;28.73;16.55;;;;;;;-143.90;100.00;65065.84;6267177;22;20040;-81
2023/10/13 02:56:30;;;;;;;43.17;17.48;;;;;;;-143.90;100.00;65065.84;6245014;23;20037;-80
2023/10/13 02:59:05;;;;;;;34.33;18.03;;;;;;;-143.90;100.00;65065.84;6268760;22;20092;-81
2023/10/13 03:01:34;;;;;;;38.03;17.58;;;;;;;-143.90;100.00;65065.84;6243903;22;20262;-82
2023/10/13 03:07:28;;;;;;;37.83;19.98;;;;;;;-143.90;100.00;65065.84;6240675;23;20046;-81
2023/10/13 03:13:15;;;;;;;46.40;21.75;;;;;;;-143.90;100.00;65065.84;6241902;22;20498;-81
2023/10/13 03:15:40;;;;;;;44.77;20.93;;;;;;;-143.90;100.00;65065.84;6268652;22;20000;-81
2023/10/13 03:18:05;;;;;;;40.88;21.55;;;;;;;-143.90;100.00;65065.84;6268741;22;20242;-80
2023/10/13 03:20:31;;;;;;;42.58;22.88;;;;;;;-143.90;100.00;65065.84;6262265;22;20019;-83
2023/10/13 03:22:58;;;;;;;48.17;23.13;;;;;;;-143.90;100.00;65065.84;6268789;22;20011;-82
2023/10/13 03:25:24;;;;;;;43.20;21.10;;;;;;;-143.90;100.00;65065.84;6244018;22;20439;-84
2023/10/13 03:31:17;;;;;;;45.35;24.52;;;;;;;-143.90;100.00;65065.84;6242209;22;20019;-80
2023/10/13 03:33:45;;;;;;;49.35;22.45;;;;;;;-143.90;100.00;65065.84;6214326;22;20016;-80
2023/10/13 03:36:26;;;;;;;50.72;23.80;;;;;;;-143.90;100.00;65065.84;6268674;22;20019;-79
2023/10/13 03:42:18;;;;;;;52.03;25.02;;;;;;;-143.90;100.00;65065.84;6244558;22;20087;-80
2023/10/13 03:44:46;;;;;;;61.75;27.35;;;;;;;-143.90;100.00;65065.84;6241439;23;20039;-81
2023/10/13 03:50:35;;;;;;;62.40;27.35;;;;;;;-143.90;100.00;65065.84;6244698;23;20018;-80
2023/10/13 03:53:00;;;;;;;56.13;28.63;;;;;;;-143.90;100.00;65065.84;6268703;22;20012;-79
2023/10/13 03:55:29;;;;;;;63.88;28.92;;;;;;;-143.90;100.00;65065.84;6268389;22;20004;-79
2023/10/13 03:57:55;;;;;;;61.47;29.23;;;;;;;-143.90;100.00;65065.84;6262091;22;20035;-79
2023/10/13 04:03:57;;;;;;;64.18;30.65;;;;;;;-143.90;100.00;65065.84;6240981;23;20502;-79
2023/10/13 04:06:51;;;;;;;65.82;31.42;;;;;;;-143.90;100.00;65065.84;6244415;22;20004;-79
2023/10/13 04:15:18;;;;;;;61.58;28.55;;;;;;;-143.90;100.00;65065.84;6241794;23;20018;-80
2023/10/13 04:21:18;;;;;;;58.08;28.58;;;;;;;-143.90;100.00;65065.84;6241274;22;20094;-81
2023/10/13 04:32:38;;;;;;;60.30;28.55;;;;;;;-143.90;100.00;65065.84;6247289;22;20009;-80
2023/10/13 04:35:18;;;;;;;51.78;29.48;;;;;;;-143.90;100.00;65065.84;6244483;22;20008;-79
2023/10/13 04:41:22;;;;;;;48.05;24.65;;;;;;;-143.90;100.00;65065.84;6241113;23;20019;-80
2023/10/13 04:43:56;;;;;;;52.35;25.67;;;;;;;-143.90;100.00;65065.84;6236997;23;20056;-80
2023/10/13 04:46:39;;;;;;;48.88;23.35;;;;;;;-143.90;100.00;65065.84;6268239;22;20004;-82
2023/10/13 04:49:10;;;;;;;43.30;24.65;;;;;;;-143.90;100.00;65065.84;6242537;23;20004;-81
2023/10/13 04:54:45;;;;;;;46.38;22.00;;;;;;;-143.90;100.00;65065.84;6182951;23;20086;-83
2023/10/13 06:29:21;;;;;;;25.90;13.23;;;;;;;-143.90;100.00;65065.84;6243371;23;20376;-78
2023/10/13 06:35:08;;;;;;;25.63;12.68;;;;;;;-143.90;100.00;65065.84;6246945;23;20018;-79
2023/10/13 06:40:57;;;;;;;27.67;12.18;;;;;;;-143.90;100.00;65065.84;6244274;23;20042;-79
2023/10/13 06:46:44;;;;;;;23.08;13.40;;;;;;;-143.90;100.00;65065.84;6247560;23;20018;-78
2023/10/13 06:49:10;;;;;;;24.25;12.07;;;;;;;-143.90;100.00;65065.84;6271111;22;20083;-80
2023/10/13 06:54:57;;;;;;;26.83;12.77;;;;;;;-143.90;100.00;65065.84;6246873;23;20404;-81
2023/10/13 06:57:23;;;;;;;27.05;12.55;;;;;;;-143.90;100.00;65065.84;6265334;22;20012;-77
2023/10/13 06:59:49;;;;;;;22.50;12.18;;;;;;;-143.90;100.00;65065.84;6246821;22;20054;-78
2023/10/13 07:05:41;;;;;;;25.95;12.07;;;;;;;-143.90;100.00;65065.84;6242070;23;20055;-80
2023/10/13 07:11:34;;;;;;;26.70;12.45;;;;;;;-143.90;100.00;65065.84;6244930;23;20035;-78
2023/10/13 07:14:10;;;;;;;22.48;11.30;;;;;;;-143.90;100.00;65065.84;6244085;22;20046;-80
2023/10/13 07:16:58;;;;;;;26.27;12.27;;;;;;;-143.90;100.00;65065.84;6243175;23;20027;-79
2023/10/13 07:23:03;;;;;;;26.80;11.52;;;;;;;-143.90;100.00;65065.84;6244614;23;20349;-77
2023/10/13 07:25:32;;;;;;;26.52;10.85;;;;;;;-143.90;100.00;65065.84;6262200;22;20070;-77
2023/10/13 07:28:00;;;;;;;23.02;11.80;;;;;;;-143.90;100.00;65065.84;6268744;22;20083;-75
2023/10/13 07:33:47;;;;;;;26.05;11.40;;;;;;;-143.90;100.00;65065.84;6245396;23;20031;-78
2023/10/13 07:39:34;;;;;;;24.38;12.18;;;;;;;-143.90;100.00;65065.84;6242995;23;20019;-77
2023/10/13 07:45:35;;;;;;;18.42;9.73;;;;;;;-143.90;100.00;65065.84;6244288;22;20038;-77
2023/10/13 07:51:26;;;;;;;24.45;10.48;;;;;;;-143.90;100.00;65065.84;6244687;23;20062;-78
2023/10/13 07:53:52;;;;;;;20.40;10.18;;;;;;;-143.90;100.00;65065.84;6268669;22;20055;-75
2023/10/13 07:56:19;;;;;;;18.17;9.55;;;;;;;-143.90;100.00;65065.84;6243534;22;20086;-77
2023/10/13 07:59:00;;;;;;;20.55;9.45;;;;;;;-143.90;100.00;65065.84;6268539;22;20032;-76
2023/10/13 08:08:14;;;;;;;18.38;8.02;;;;;;;-143.90;100.00;65065.84;6241786;23;20461;-79
2023/10/13 08:14:12;;;;;;;17.85;7.80;;;;;;;-143.90;100.00;65065.84;6244507;23;20031;-78
2023/10/13 08:19:59;;;;;;;21.13;8.13;;;;;;;-143.90;100.00;65065.84;6240395;23;20019;-79
2023/10/13 08:51:11;;;;;;;19.42;7.20;;;;;;;-143.90;100.00;65065.84;6097268;23;20049;-80
2023/10/13 08:57:29;;;;;;;16.52;7.38;;;;;;;-143.90;100.00;65065.84;6244431;23;20034;-80
2023/10/13 09:03:38;;;;;;;17.38;8.25;;;;;;;-143.90;100.00;65065.84;6244302;23;20030;-80
2023/10/13 09:09:39;;;;;;;18.98;8.65;;;;;;;-143.90;100.00;65065.84;6241298;22;20023;-79
2023/10/13 09:16:21;;;;;;;16.63;7.90;;;;;;;-143.90;100.00;65065.84;6243254;22;20471;-80
2023/10/13 09:27:32;;;;;;;14.02;7.65;;;;;;;-143.90;100.00;65065.84;6241201;23;20065;-79
2023/10/13 09:33:28;;;;;;;19.58;7.78;;;;;;;-143.90;100.00;65065.84;6244649;23;20015;-82
2023/10/13 09:39:29;;;;;;;14.13;7.57;;;;;;;-143.90;100.00;65065.84;6244978;23;20455;-78
2023/10/13 09:45:17;;;;;;;15.95;7.47;;;;;;;-143.90;100.00;65065.84;6241767;23;20031;-77
2023/10/13 09:51:08;;;;;;;16.30;7.47;;;;;;;-143.90;100.00;65065.84;6244934;23;20050;-77
2023/10/13 10:00:56;;;;;;;17.90;7.63;;;;;;;-143.90;100.00;65065.84;6244845;23;20135;-80
2023/10/13 10:06:45;;;;;;;17.10;7.07;;;;;;;-143.90;100.00;65065.84;6246140;23;20058;-78
2023/10/13 10:12:47;;;;;;;18.77;7.00;;;;;;;-143.90;100.00;65065.84;6243320;23;20548;-76
2023/10/13 10:18:34;;;;;;;16.75;7.38;;;;;;;-143.90;100.00;65065.84;6243341;23;20058;-78
2023/10/13 10:24:29;;;;;;;21.05;7.60;;;;;;;-143.90;100.00;65065.84;6246065;23;20727;-78
2023/10/13 10:30:27;;;;;;;14.88;7.80;;;;;;;-143.90;100.00;65065.84;6242807;23;20451;-76
2023/10/13 10:36:14;;;;;;;16.88;7.28;;;;;;;-143.90;100.00;65065.84;6245645;23;20020;-77
2023/10/13 10:42:16;;;;;;;20.65;7.30;;;;;;;-143.90;100.00;65065.84;6245703;23;20099;-78
2023/10/13 10:48:17;;;;;;;16.73;7.35;;;;;;;-143.90;100.00;65065.84;6245611;23;20057;-78
2023/10/13 10:54:11;;;;;;;14.85;7.13;;;;;;;-143.90;100.00;65065.84;6245867;23;20035;-77
2023/10/13 11:03:22;;;;;;;16.98;7.55;;;;;;;-143.90;100.00;65065.84;6245343;23;20022;-76
2023/10/13 11:09:18;;;;;;;17.92;8.07;;;;;;;-143.90;100.00;65065.84;6245559;23;20070;-77
2023/10/13 11:15:22;;;;;;;15.88;7.10;;;;;;;-143.90;100.00;65065.84;6242465;22;20016;-77
2023/10/13 11:21:15;;;;;;;16.88;8.20;;;;;;;-143.90;100.00;65065.84;6245565;23;20065;-80
2023/10/13 11:27:02;;;;;;;17.10;7.78;;;;;;;-143.90;100.00;65065.84;6241628;23;20095;-76
2023/10/13 11:33:10;;;;;;;15.93;7.82;;;;;;;-143.90;100.00;65065.84;6182072;23;20017;-77
2023/10/13 11:38:57;;;;;;;13.55;7.72;;;;;;;-143.90;100.00;65065.84;6245079;23;20054;-76
2023/10/13 11:41:23;;;;;;;19.00;8.05;;;;;;;-143.90;100.00;65065.84;6244225;22;20016;-77
2023/10/13 11:43:52;;;;;;;18.92;7.90;;;;;;;-143.90;100.00;65065.84;6269020;22;20436;-77
2023/10/13 11:51:52;;;;;;;20.13;7.35;;;;;;;-143.90;100.00;65065.84;6250463;22;20058;-77
2023/10/13 11:57:39;;;;;;;16.52;7.55;;;;;;;-143.90;100.00;65065.84;6242166;22;20022;-76
2023/10/13 12:05:49;;;;;;;11.05;7.25;;;;;;;-143.90;100.00;65065.84;6244393;23;20026;-77
2023/10/13 12:11:39;;;;;;;19.23;8.07;;;;;;;-143.90;100.00;65065.84;6242187;22;20023;-77
2023/10/13 12:17:31;;;;;;;18.23;7.90;;;;;;;-143.90;100.00;65065.84;6245596;23;20055;-76
2023/10/13 12:23:20;;;;;;;21.05;7.78;;;;;;;-143.90;100.00;65065.84;6242154;23;20431;-77
2023/10/13 12:29:08;;;;;;;18.23;7.72;;;;;;;-143.90;100.00;65065.84;6242854;23;20043;-75
2023/10/13 12:53:02;;;;;;;17.38;7.15;;;;;;;-143.90;100.00;65065.84;6245005;23;20472;-75
2023/10/13 12:58:52;;;;;;;19.95;7.47;;;;;;;-143.90;100.00;65065.84;6242036;23;20333;-76
2023/10/13 13:04:43;;;;;;;20.33;7.50;;;;;;;-143.90;100.00;65065.84;6244869;23;20069;-76
2023/10/13 13:13:55;;;;;;;14.07;6.32;;;;;;;-143.90;100.00;65065.84;6244897;23;20019;-75
2023/10/13 13:19:42;;;;;;;15.85;6.05;;;;;;;-143.90;100.00;65065.84;6244762;23;20341;-75
2023/10/13 13:25:30;;;;;;;16.35;6.50;;;;;;;-143.90;100.00;65065.84;6241921;22;20277;-77
2023/10/13 13:31:29;;;;;;;18.58;6.38;;;;;;;-143.90;100.00;65065.84;6244667;23;20087;-75
2023/10/13 13:37:15;;;;;;;15.30;5.68;;;;;;;-143.90;100.00;65065.84;6240729;23;20014;-75
2023/10/13 13:43:03;;;;;;;15.15;6.30;;;;;;;-143.90;100.00;65065.84;6244813;23;20266;-75
2023/10/13 13:48:51;;;;;;;18.00;6.20;;;;;;;-143.90;100.00;65065.84;6241479;23;20395;-75
2023/10/13 13:51:26;;;;;;;17.30;6.32;;;;;;;-143.90;100.00;65065.84;6242436;23;20039;-75
2023/10/13 13:53:52;;;;;;;18.65;6.57;;;;;;;-143.90;100.00;65065.84;6244490;22;20329;-75
2023/10/13 13:56:18;;;;;;;16.10;6.25;;;;;;;-143.90;100.00;65065.84;6243619;22;20095;-76
2023/10/13 14:02:19;;;;;;;13.57;6.00;;;;;;;-143.90;100.00;65065.84;6240404;23;20031;-75
2023/10/13 14:08:11;;;;;;;14.80;6.53;;;;;;;-143.90;100.00;65065.84;6242260;22;20026;-76
2023/10/13 14:13:58;;;;;;;13.73;6.03;;;;;;;-143.90;100.00;65065.84;6244169;23;20014;-75
2023/10/13 14:19:45;;;;;;;15.45;6.10;;;;;;;-143.90;100.00;65065.84;6241107;22;20242;-75
2023/10/13 14:25:37;;;;;;;13.27;5.70;;;;;;;-143.90;100.00;65065.84;6244111;23;20061;-75
2023/10/13 14:31:24;;;;;;;15.75;6.30;;;;;;;-143.90;100.00;65065.84;6241174;23;20078;-75
2023/10/13 14:33:49;;;;;;;12.53;5.80;;;;;;;-143.90;100.00;65065.84;6261675;22;20004;-74
2023/10/13 14:36:19;;;;;;;18.45;6.05;;;;;;;-143.90;100.00;65065.84;6267942;22;20251;-76
2023/10/13 14:42:06;;;;;;;14.38;6.15;;;;;;;-143.90;100.00;65065.84;6240901;23;20091;-75
2023/10/13 14:44:33;;;;;;;12.77;6.97;;;;;;;-143.90;100.00;65065.84;6243529;22;20421;-75
2023/10/13 14:50:20;;;;;;;12.73;5.88;;;;;;;-143.90;100.00;65065.84;6245609;23;20097;-75
2023/10/13 14:56:08;;;;;;;12.98;6.07;;;;;;;-143.90;100.00;65065.84;6242371;23;20054;-76
2023/10/13 14:58:33;;;;;;;14.40;6.07;;;;;;;-143.90;100.00;65065.84;6244384;22;20008;-75
2023/10/13 15:04:24;;;;;;;16.35;6.80;;;;;;;-143.90;100.00;65065.84;6243862;23;20353;-75
2023/10/13 15:10:16;;;;;;;19.52;6.47;;;;;;;-143.90;100.00;65065.84;6245371;23;20018;-75
2023/10/13 15:16:18;;;;;;;17.63;6.97;;;;;;;-143.90;100.00;65065.84;6241637;23;20333;-76
2023/10/13 15:22:12;;;;;;;18.30;6.70;;;;;;;-143.90;100.00;65065.84;6244535;23;20506;-75
2023/10/13 15:28:20;;;;;;;14.52;6.70;;;;;;;-143.90;100.00;65065.84;6250601;23;20027;-74
2023/10/13 15:34:13;;;;;;;15.52;6.70;;;;;;;-143.90;100.00;65065.84;6241601;22;20023;-74
2023/10/13 15:36:39;;;;;;;17.25;7.03;;;;;;;-143.90;100.00;65065.84;6244633;22;20000;-76
2023/10/13 15:39:08;;;;;;;20.80;7.53;;;;;;;-143.90;100.00;65065.84;6244576;22;20011;-75
2023/10/13 15:41:33;;;;;;;15.80;8.13;;;;;;;-143.90;100.00;65065.84;6238242;23;20004;-76
2023/10/13 15:47:20;;;;;;;17.80;7.07;;;;;;;-143.90;100.00;65065.84;6241444;23;20377;-75
2023/10/13 15:53:12;;;;;;;16.63;7.28;;;;;;;-143.90;100.00;65065.84;6244563;23;20391;-75
2023/10/13 15:59:02;;;;;;;17.55;6.65;;;;;;;-143.90;100.00;65065.84;6241436;23;20018;-76
2023/10/13 16:04:49;;;;;;;12.68;6.82;;;;;;;-143.90;100.00;65065.84;6244433;23;20093;-75
2023/10/13 16:10:35;;;;;;;17.50;7.07;;;;;;;-143.90;100.00;65065.84;6241496;23;20309;-76
2023/10/13 16:16:23;;;;;;;15.93;6.63;;;;;;;-143.90;100.00;65065.84;6243262;23;20284;-75
2023/10/13 16:22:10;;;;;;;14.93;6.78;;;;;;;-143.90;100.00;65065.84;6244381;23;20387;-76
2023/10/13 16:27:57;;;;;;;15.55;6.68;;;;;;;-143.90;100.00;65065.84;6241299;23;20618;-75
2023/10/13 16:33:44;;;;;;;16.20;6.70;;;;;;;-143.90;100.00;65065.84;6244429;23;20242;-75
2023/10/13 16:36:10;;;;;;;18.83;7.07;;;;;;;-143.90;100.00;65065.84;6268222;22;20001;-75
2023/10/13 16:41:57;;;;;;;13.93;6.45;;;;;;;-143.90;100.00;65065.84;6241287;23;20038;-79
2023/10/13 16:47:44;;;;;;;14.88;7.18;;;;;;;-143.90;100.00;65065.84;6244460;23;20241;-77
2023/10/13 16:53:32;;;;;;;16.70;6.95;;;;;;;-143.90;100.00;65065.84;6244325;23;20024;-74
2023/10/13 16:59:19;;;;;;;9.57;6.45;;;;;;;-143.90;100.00;65065.84;6240923;22;20027;-77
2023/10/13 17:05:12;;;;;;;15.85;7.65;;;;;;;-143.90;100.00;65065.84;6244202;23;20058;-74
2023/10/13 17:11:21;;;;;;;16.55;8.90;;;;;;;-143.90;100.00;65065.84;6240741;22;20023;-77
2023/10/13 17:17:08;;;;;;;15.90;8.63;;;;;;;-143.90;100.00;65065.84;6242679;22;20091;-80
2023/10/13 17:22:55;;;;;;;15.10;9.30;;;;;;;-143.90;100.00;65065.84;6244252;23;20073;-79
2023/10/13 17:28:43;;;;;;;22.00;10.10;;;;;;;-143.90;100.00;65065.84;6241013;23;20020;-78
2023/10/13 17:34:30;;;;;;;17.05;10.65;;;;;;;-143.90;100.00;65065.84;6244044;23;20026;-81
2023/10/13 17:40:17;;;;;;;16.58;10.07;;;;;;;-143.90;100.00;65065.84;6241230;23;20039;-79
2023/10/13 17:46:14;;;;;;;21.92;10.43;;;;;;;-143.90;100.00;65065.84;6244068;23;20507;-81
2023/10/13 17:52:04;;;;;;;22.52;10.93;;;;;;;-143.90;100.00;65065.84;6240440;23;20052;-86
2023/10/13 17:55:16;;;;;;;16.85;11.02;;;;;;;-143.90;100.00;65065.84;6244048;23;20038;-86
2023/10/13 18:01:16;;;;;;;18.98;10.68;;;;;;;-143.90;100.00;65065.84;6243969;23;20099;-81
2023/10/13 18:07:05;;;;;;;19.00;10.32;;;;;;;-143.90;100.00;65065.84;6240822;22;20016;-81
2023/10/13 18:12:51;;;;;;;16.02;10.68;;;;;;;-143.90;100.00;65065.84;6244335;23;20019;-80
2023/10/13 18:18:38;;;;;;;19.30;10.35;;;;;;;-143.90;100.00;65065.84;6240813;23;20131;-79
2023/10/13 18:24:26;;;;;;;20.30;11.75;;;;;;;-143.90;100.00;65065.84;6245059;23;20250;-81
2023/10/13 18:33:36;;;;;;;22.65;11.23;;;;;;;-143.90;100.00;65065.84;6244274;23;20099;-78
2023/10/13 18:39:33;;;;;;;22.67;12.48;;;;;;;-143.90;100.00;65065.84;6245012;23;20023;-79
2023/10/13 18:45:22;;;;;;;24.98;12.02;;;;;;;-143.90;100.00;65065.84;6241848;22;20028;-79
2023/10/13 18:51:13;;;;;;;13.70;9.00;;;;;;;-143.90;100.00;65065.84;6245053;23;20034;-78
2023/10/13 18:57:02;;;;;;;13.32;7.75;;;;;;;-143.90;100.00;65065.84;6242231;23;20455;-79
2023/10/13 19:02:50;;;;;;;14.65;9.13;;;;;;;-143.90;100.00;65065.84;6244535;23;20069;-80
2023/10/13 19:08:37;;;;;;;21.77;10.93;;;;;;;-143.90;100.00;65065.84;6244719;23;20054;-80
2023/10/13 19:14:24;;;;;;;15.40;11.07;;;;;;;-143.90;100.00;65065.84;6242043;22;20373;-78
2023/10/13 19:20:15;;;;;;;15.52;10.30;;;;;;;-143.90;100.00;65065.84;6244750;23;20599;-78
2023/10/13 19:26:03;;;;;;;20.02;11.32;;;;;;;-143.90;100.00;65065.84;6241721;22;20066;-80
2023/10/13 19:31:50;;;;;;;23.65;11.60;;;;;;;-143.90;100.00;65065.84;6244833;23;20070;-80
2023/10/13 19:37:42;;;;;;;19.45;12.40;;;;;;;-143.90;100.00;65065.84;6240641;23;20023;-78
2023/10/13 19:43:31;;;;;;;19.63;11.75;;;;;;;-143.90;100.00;65065.84;6242173;22;20065;-79
2023/10/13 19:49:20;;;;;;;20.98;11.32;;;;;;;-143.90;100.00;65065.84;6244899;23;20062;-80
2023/10/13 19:55:07;;;;;;;21.75;11.70;;;;;;;-143.90;100.00;65065.84;6241637;23;20068;-80
2023/10/13 20:00:55;;;;;;;22.23;13.07;;;;;;;-143.90;100.00;65065.84;6244741;23;20348;-77
2023/10/13 20:06:42;;;;;;;25.63;13.18;;;;;;;-143.90;100.00;65065.84;6241870;23;20343;-78
2023/10/13 20:12:29;;;;;;;23.90;12.52;;;;;;;-143.90;100.00;65065.84;6244488;23;20043;-78
2023/10/13 20:21:39;;;;;;;19.70;13.05;;;;;;;-143.90;100.00;65065.84;6243878;23;20039;-77
2023/10/13 20:27:27;;;;;;;26.73;15.02;;;;;;;-143.90;100.00;65065.84;6244649;23;20141;-77
2023/10/13 20:33:19;;;;;;;26.48;13.48;;;;;;;-143.90;100.00;65065.84;6240465;23;20023;-77
2023/10/13 20:39:22;;;;;;;24.20;14.25;;;;;;;-143.90;100.00;65065.84;6244318;23;20075;-79
2023/10/13 20:45:09;;;;;;;19.20;11.00;;;;;;;-143.90;100.00;65065.84;6240807;23;20145;-80
2023/10/13 20:50:59;;;;;;;26.75;12.90;;;;;;;-143.90;100.00;65065.84;6243186;23;20241;-79
2023/10/13 20:56:46;;;;;;;20.30;12.40;;;;;;;-143.90;100.00;65065.84;6244425;23;20022;-77
2023/10/13 21:02:33;;;;;;;20.80;12.48;;;;;;;-143.90;100.00;65065.84;6241608;23;20361;-78
2023/10/13 21:04:59;;;;;;;21.60;11.17;;;;;;;-143.90;100.00;65065.84;6262082;22;20004;-80
2023/10/13 21:10:46;;;;;;;20.17;11.00;;;;;;;-143.90;100.00;65065.84;6247089;23;20246;-78
2023/10/13 21:16:33;;;;;;;20.25;10.95;;;;;;;-143.90;100.00;65065.84;6243533;23;20115;-79
2023/10/13 21:22:21;;;;;;;20.25;11.60;;;;;;;-143.90;100.00;65065.84;6245982;23;20066;-77
2023/10/13 21:28:08;;;;;;;15.55;9.57;;;;;;;-143.90;100.00;65065.84;6246327;23;20018;-79
2023/10/13 21:33:55;;;;;;;20.75;9.68;;;;;;;-143.90;100.00;65065.84;6242796;22;20023;-79
2023/10/13 21:39:42;;;;;;;20.48;10.70;;;;;;;-143.90;100.00;65065.84;6246330;23;20019;-81
2023/10/13 21:45:29;;;;;;;20.38;10.10;;;;;;;-143.90;100.00;65065.84;6241496;23;20379;-78
2023/10/13 21:51:18;;;;;;;16.52;9.52;;;;;;;-143.90;100.00;65065.84;6244431;23;20039;-80
2023/10/13 21:57:05;;;;;;;17.50;8.88;;;;;;;-143.90;100.00;65065.84;6242282;23;20069;-78
2023/10/13 22:02:55;;;;;;;19.30;9.95;;;;;;;-143.90;100.00;65065.84;6245265;22;20019;-80
2023/10/13 22:08:42;;;;;;;21.98;10.30;;;;;;;-143.90;100.00;65065.84;6245576;23;20440;-80
2023/10/13 22:14:29;;;;;;;15.45;9.32;;;;;;;-143.90;100.00;65065.84;6241929;23;20333;-82
2023/10/13 22:20:21;;;;;;;18.73;9.70;;;;;;;-143.90;100.00;65065.84;6245125;23;20050;-79
2023/10/13 22:26:12;;;;;;;19.05;10.35;;;;;;;-143.90;100.00;65065.84;6242937;22;20460;-81
2023/10/13 22:32:00;;;;;;;26.20;12.23;;;;;;;-143.90;100.00;65065.84;6245030;23;20039;-80
2023/10/13 22:37:52;;;;;;;25.00;12.50;;;;;;;-143.90;100.00;65065.84;6240961;23;20035;-81
2023/10/13 22:43:39;;;;;;;20.33;12.25;;;;;;;-143.90;100.00;65065.84;6241923;23;20023;-82
2023/10/13 22:49:26;;;;;;;21.85;13.80;;;;;;;-143.90;100.00;65065.84;6245306;23;20031;-81
2023/10/13 22:55:22;;;;;;;25.00;13.38;;;;;;;-143.90;100.00;65065.84;6241871;22;20289;-80
2023/10/13 23:01:09;;;;;;;25.95;13.77;;;;;;;-143.90;100.00;65065.84;6244877;23;20030;-79
2023/10/13 23:06:58;;;;;;;23.90;14.13;;;;;;;-143.90;100.00;65065.84;6244842;23;20066;-78
2023/10/13 23:09:24;;;;;;;27.02;13.75;;;;;;;-143.90;100.00;65065.84;6261959;22;20387;-80
2023/10/13 23:15:12;;;;;;;23.00;14.93;;;;;;;-143.90;100.00;65065.84;6241843;23;20018;-80
2023/10/13 23:21:02;;;;;;;29.88;15.50;;;;;;;-143.90;100.00;65065.84;6244806;23;20047;-80
2023/10/13 23:26:50;;;;;;;19.58;9.77;;;;;;;-143.90;100.00;65065.84;6240794;22;20043;-81
2023/10/13 23:32:37;;;;;;;5.63;2.78;;;;;;;-143.90;100.00;65065.84;6245919;23;20014;-82
2023/10/13 23:38:28;;;;;;;2.83;2.20;;;;;;;-143.90;100.00;65065.84;6241770;23;20293;-82
2023/10/13 23:44:15;;;;;;;4.38;1.85;;;;;;;-143.90;100.00;65065.84;6243156;23;20243;-84
2023/10/13 23:50:07;;;;;;;5.57;1.48;;;;;;;-143.90;100.00;65065.84;6244722;23;20288;-82
2023/10/13 23:56:13;;;;;;;4.15;1.77;;;;;;;-143.90;100.00;65065.84;6241619;22;20063;-80
